Nave Celeste — VRZH4 — position and weather

sailwx.info

Track history (hours):
 
Tides and Currents Weather Stations Pressure Air Temp Water Temp Dewpoint Dewpoint Depression Visibility Wind Speed Wind Dir Waves Ship Positions

Nave Celeste

Last reported at 2016-Apr-27 11:11 UTC. Time now 2016-May-02 05:59 UTC.
Position N 38°36' E 120°28'.

Length 333 m; draft 11.5 m.

Type: Ship. MMSI: 477974000.

Date/timePositionNaut miles runAvg speedWind from/ knotsBaromVisibWave heightAir tempDewpointWater temp
2016-Apr-27 11:11N 38°36' E 120°28'711.1
2016-Apr-27 10:31N 38°39' E 120°19'11611.6
2016-Apr-27 00:30N 38°57' E 117°52'0 0.1
2016-Apr-26 21:12N 38°57' E 117°52'0 0.0
2016-Apr-26 20:32N 38°57' E 117°52'0 0.0
2016-Apr-26 19:32N 38°57' E 117°52'0 0.0
2016-Apr-26 18:33N 38°57' E 117°52'0 0.0
2016-Apr-26 17:32N 38°57' E 117°52'0 0.0
2016-Apr-26 16:33N 38°57' E 117°52'0 0.0
2016-Apr-26 15:30N 38°57' E 117°52'0 0.0
2016-Apr-26 14:33N 38°57' E 117°52'0 0.0
2016-Apr-26 13:32N 38°57' E 117°52'0 0.0
2016-Apr-26 12:33N 38°57' E 117°52'0 0.0
2016-Apr-26 11:23N 38°57' E 117°52'0 0.0
2016-Apr-26 07:09N 38°57' E 117°52'0 0.0
2016-Apr-26 03:25N 38°57' E 117°52'0 0.0
2016-Apr-26 02:31N 38°57' E 117°52'0 0.0
2016-Apr-26 01:23N 38°57' E 117°52'0 0.0
2016-Apr-25 15:26N 38°57' E 117°52'0 0.0
2016-Apr-25 11:31N 38°57' E 117°52'0 0.0
2016-Apr-25 09:21N 38°57' E 117°52'0 0.0
2016-Apr-25 07:10N 38°57' E 117°52'0 0.0
2016-Apr-25 06:14N 38°57' E 117°52'0 0.0
2016-Apr-25 04:29N 38°57' E 117°52'0 0.4
2016-Apr-25 03:33N 38°57' E 117°53'176 6.9
2016-Apr-24 02:06N 38°24' E 121°34'52311.4
2016-Apr-22 04:14N 29°44' E 122°39'1012.0
2016-Apr-22 03:26N 29°40' E 122°29'7 7.9
2016-Apr-22 02:32N 29°42' E 122°21'1 0.2
2016-Apr-21 22:12N 29°42' E 122°20'0 0.0
2016-Apr-21 17:30N 29°42' E 122°21'0 0.2
2016-Apr-21 16:30N 29°42' E 122°21'0 0.1
2016-Apr-21 15:21N 29°42' E 122°20'0 0.1
2016-Apr-21 11:24N 29°42' E 122°20'0 0.1
2016-Apr-21 08:30N 29°42' E 122°20'0 0.0
2016-Apr-21 06:31N 29°42' E 122°20'1 0.8
2016-Apr-21 05:33N 29°42' E 122°20'8 8.3
2016-Apr-21 04:33N 29°49' E 122°14'1110.8
2016-Apr-21 03:33N 29°55' E 122°04'4 0.1
2016-Apr-19 16:20N 29°55' E 121°60'0 0.0
2016-Apr-19 12:33N 29°55' E 121°60'0 0.0
2016-Apr-19 11:32N 29°55' E 121°60'0 0.0
2016-Apr-19 10:34N 29°55' E 121°60'0 0.0
2016-Apr-19 09:30N 29°55' E 121°60'0 0.0
2016-Apr-19 08:24N 29°55' E 121°60'0 0.1
2016-Apr-19 07:31N 29°55' E 121°60'0 0.0
2016-Apr-18 18:33N 29°55' E 121°60'0 0.1
2016-Apr-18 17:33N 29°55' E 121°60'0 0.0
2016-Apr-18 16:20N 29°55' E 121°60'0 0.1
2016-Apr-18 15:33N 29°55' E 121°60'0 0.0
2016-Apr-18 14:26N 29°55' E 121°60'0 0.0
2016-Apr-18 12:31N 29°55' E 121°60'0 0.0
2016-Apr-18 11:29N 29°55' E 121°60'0 0.0
2016-Apr-18 10:33N 29°55' E 121°60'0 0.0
2016-Apr-18 09:15N 29°55' E 121°60'0 0.0
2016-Apr-17 22:06N 29°55' E 121°60'0 0.0
2016-Apr-17 18:16N 29°55' E 121°60'0 0.0
2016-Apr-17 17:03N 29°55' E 121°60'0 0.0
2016-Apr-17 16:32N 29°55' E 121°60'0 0.0
2016-Apr-17 15:30N 29°55' E 121°60'0 0.0
2016-Apr-17 14:30N 29°55' E 121°60'0 0.0
2016-Apr-17 13:22N 29°55' E 121°60'0 0.0
2016-Apr-17 12:11N 29°55' E 121°60'0 0.0
2016-Apr-17 11:30N 29°55' E 121°60'  
Track history (hours):
 
Tides and Currents Weather Stations Pressure Air Temp Water Temp Dewpoint Dewpoint Depression Visibility Wind Speed Wind Dir Waves Ship Positions

Nave Celeste

Last reported at 2016-Apr-27 11:11 UTC. Time now 2016-May-02 05:59 UTC.
Position N 38°36' E 120°28'.

Length 333 m; draft 11.5 m.

Type: Ship. MMSI: 477974000.

Date/timePositionNaut miles runAvg speedWind from/ knotsBaromVisibWave heightAir tempDewpointWater temp
2016-Apr-27 11:11N 38°36' E 120°28'711.1
2016-Apr-27 10:31N 38°39' E 120°19'11611.6
2016-Apr-27 00:30N 38°57' E 117°52'0 0.1
2016-Apr-26 21:12N 38°57' E 117°52'0 0.0
2016-Apr-26 20:32N 38°57' E 117°52'0 0.0
2016-Apr-26 19:32N 38°57' E 117°52'0 0.0
2016-Apr-26 18:33N 38°57' E 117°52'0 0.0
2016-Apr-26 17:32N 38°57' E 117°52'0 0.0
2016-Apr-26 16:33N 38°57' E 117°52'0 0.0
2016-Apr-26 15:30N 38°57' E 117°52'0 0.0
2016-Apr-26 14:33N 38°57' E 117°52'0 0.0
2016-Apr-26 13:32N 38°57' E 117°52'0 0.0
2016-Apr-26 12:33N 38°57' E 117°52'0 0.0
2016-Apr-26 11:23N 38°57' E 117°52'0 0.0
2016-Apr-26 07:09N 38°57' E 117°52'0 0.0
2016-Apr-26 03:25N 38°57' E 117°52'0 0.0
2016-Apr-26 02:31N 38°57' E 117°52'0 0.0
2016-Apr-26 01:23N 38°57' E 117°52'0 0.0
2016-Apr-25 15:26N 38°57' E 117°52'0 0.0
2016-Apr-25 11:31N 38°57' E 117°52'0 0.0
2016-Apr-25 09:21N 38°57' E 117°52'0 0.0
2016-Apr-25 07:10N 38°57' E 117°52'0 0.0
2016-Apr-25 06:14N 38°57' E 117°52'0 0.0
2016-Apr-25 04:29N 38°57' E 117°52'0 0.4
2016-Apr-25 03:33N 38°57' E 117°53'176 6.9
2016-Apr-24 02:06N 38°24' E 121°34'52311.4
2016-Apr-22 04:14N 29°44' E 122°39'1012.0
2016-Apr-22 03:26N 29°40' E 122°29'7 7.9
2016-Apr-22 02:32N 29°42' E 122°21'1 0.2
2016-Apr-21 22:12N 29°42' E 122°20'0 0.0
2016-Apr-21 17:30N 29°42' E 122°21'0 0.2
2016-Apr-21 16:30N 29°42' E 122°21'0 0.1
2016-Apr-21 15:21N 29°42' E 122°20'0 0.1
2016-Apr-21 11:24N 29°42' E 122°20'0 0.1
2016-Apr-21 08:30N 29°42' E 122°20'0 0.0
2016-Apr-21 06:31N 29°42' E 122°20'1 0.8
2016-Apr-21 05:33N 29°42' E 122°20'8 8.3
2016-Apr-21 04:33N 29°49' E 122°14'1110.8
2016-Apr-21 03:33N 29°55' E 122°04'4 0.1
2016-Apr-19 16:20N 29°55' E 121°60'0 0.0
2016-Apr-19 12:33N 29°55' E 121°60'0 0.0
2016-Apr-19 11:32N 29°55' E 121°60'0 0.0
2016-Apr-19 10:34N 29°55' E 121°60'0 0.0
2016-Apr-19 09:30N 29°55' E 121°60'0 0.0
2016-Apr-19 08:24N 29°55' E 121°60'0 0.1
2016-Apr-19 07:31N 29°55' E 121°60'0 0.0
2016-Apr-18 18:33N 29°55' E 121°60'0 0.1
2016-Apr-18 17:33N 29°55' E 121°60'0 0.0
2016-Apr-18 16:20N 29°55' E 121°60'0 0.1
2016-Apr-18 15:33N 29°55' E 121°60'0 0.0
2016-Apr-18 14:26N 29°55' E 121°60'0 0.0
2016-Apr-18 12:31N 29°55' E 121°60'0 0.0
2016-Apr-18 11:29N 29°55' E 121°60'0 0.0
2016-Apr-18 10:33N 29°55' E 121°60'0 0.0
2016-Apr-18 09:15N 29°55' E 121°60'0 0.0
2016-Apr-17 22:06N 29°55' E 121°60'0 0.0
2016-Apr-17 18:16N 29°55' E 121°60'0 0.0
2016-Apr-17 17:03N 29°55' E 121°60'0 0.0
2016-Apr-17 16:32N 29°55' E 121°60'0 0.0
2016-Apr-17 15:30N 29°55' E 121°60'0 0.0
2016-Apr-17 14:30N 29°55' E 121°60'0 0.0
2016-Apr-17 13:22N 29°55' E 121°60'0 0.0
2016-Apr-17 12:11N 29°55' E 121°60'0 0.0
2016-Apr-17 11:30N 29°55' E 121°60'  

Dump ship's entire track history